createdAt,value
2018-06-04T00:01:54.253Z,99.90
2018-06-04T00:04:22.785Z,99.90
2018-06-04T00:06:51.201Z,99.90
2018-06-04T00:09:19.603Z,99.90
2018-06-04T00:11:48.008Z,99.90
2018-06-04T00:14:16.382Z,99.90
2018-06-04T00:16:44.909Z,99.90
2018-06-04T00:19:13.329Z,99.90
2018-06-04T00:21:41.666Z,99.90
2018-06-04T00:24:10.086Z,99.90
2018-06-04T00:26:38.531Z,99.90
2018-06-04T00:29:06.950Z,99.90
2018-06-04T00:31:35.338Z,99.90
2018-06-04T00:34:03.748Z,99.90
2018-06-04T00:36:32.181Z,99.90
2018-06-04T00:39:00.556Z,99.90
2018-06-04T00:41:29.008Z,99.90
2018-06-04T00:43:57.829Z,99.90
2018-06-04T00:46:26.191Z,99.90
2018-06-04T00:48:54.591Z,99.90
2018-06-04T00:51:23.024Z,99.90
2018-06-04T00:53:51.411Z,99.90
2018-06-04T00:56:21.030Z,99.90
2018-06-04T00:58:49.475Z,99.90
2018-06-04T01:01:17.858Z,99.90
2018-06-04T01:03:46.321Z,99.90
2018-06-04T01:06:14.731Z,99.90
2018-06-04T01:08:43.271Z,99.90
2018-06-04T01:11:11.653Z,99.90
2018-06-04T01:13:40.052Z,99.90
2018-06-04T01:16:08.482Z,99.90
2018-06-04T01:18:36.900Z,99.90
2018-06-04T01:21:05.435Z,99.90
2018-06-04T01:23:34.733Z,99.90
2018-06-04T01:26:03.213Z,99.90
2018-06-04T01:28:31.680Z,99.90
2018-06-04T01:31:00.090Z,99.90
2018-06-04T01:33:28.568Z,99.90
2018-06-04T01:35:57.118Z,99.90
2018-06-04T01:38:25.543Z,99.90
2018-06-04T01:40:53.896Z,99.90
2018-06-04T01:43:22.426Z,99.90
2018-06-04T01:45:50.905Z,99.90
2018-06-04T01:48:19.309Z,99.90
2018-06-04T01:50:47.761Z,99.90
2018-06-04T01:53:16.138Z,99.90
2018-06-04T01:55:44.491Z,99.90
2018-06-04T01:58:12.964Z,99.90
2018-06-04T02:00:42.783Z,99.90
2018-06-04T02:03:11.161Z,99.90
2018-06-04T02:05:39.530Z,99.90
2018-06-04T02:08:08.500Z,99.90
2018-06-04T02:10:36.947Z,99.90
2018-06-04T02:13:05.442Z,99.90
2018-06-04T02:15:33.870Z,99.90
2018-06-04T02:18:08.675Z,99.90
2018-06-04T02:20:37.157Z,99.90
2018-06-04T02:23:05.554Z,99.90
2018-06-04T02:25:33.901Z,99.90
2018-06-04T02:28:02.315Z,99.90
2018-06-04T02:30:30.690Z,99.90
2018-06-04T02:32:59.145Z,99.90
2018-06-04T02:35:27.674Z,99.90
2018-06-04T02:37:56.152Z,99.90
2018-06-04T02:40:24.574Z,99.90
2018-06-04T02:42:52.970Z,99.90
2018-06-04T02:45:21.406Z,99.90
2018-06-04T02:47:51.076Z,99.90
2018-06-04T02:50:19.536Z,99.90
2018-06-04T02:52:47.949Z,99.90
2018-06-04T02:55:16.547Z,99.90
2018-06-04T02:57:44.882Z,99.90
2018-06-04T03:00:13.323Z,99.90
2018-06-04T03:02:41.724Z,99.90
2018-06-04T03:05:10.092Z,99.90
2018-06-04T03:07:38.511Z,99.90
2018-06-04T03:10:06.909Z,99.90
2018-06-04T03:12:35.306Z,99.90
2018-06-04T03:15:03.731Z,99.90
2018-06-04T03:17:32.103Z,99.90
2018-06-04T03:20:00.573Z,99.90
2018-06-04T03:22:28.995Z,99.90
2018-06-04T03:24:57.512Z,99.90
2018-06-04T03:27:25.904Z,99.90
2018-06-04T03:29:54.337Z,99.90
2018-06-04T03:32:22.785Z,99.90
2018-06-04T03:34:51.231Z,99.90
2018-06-04T03:37:19.665Z,99.90
2018-06-04T03:39:48.100Z,99.90
2018-06-04T03:42:16.546Z,99.90
2018-06-04T03:44:44.975Z,99.90
2018-06-04T03:47:13.488Z,99.90
2018-06-04T03:49:41.970Z,99.90
2018-06-04T03:52:10.410Z,99.90
2018-06-04T03:54:38.876Z,99.90
2018-06-04T03:57:07.277Z,99.90
2018-06-04T03:59:35.822Z,99.90
2018-06-04T04:02:04.250Z,99.90
2018-06-04T04:04:32.684Z,99.90
2018-06-04T04:07:01.106Z,99.90
2018-06-04T04:09:29.558Z,99.90
2018-06-04T04:11:57.885Z,99.90
2018-06-04T04:14:26.308Z,99.90
2018-06-04T04:16:54.804Z,99.90
2018-06-04T04:19:23.382Z,99.90
2018-06-04T04:21:51.987Z,99.90
2018-06-04T04:24:20.407Z,99.90
2018-06-04T04:26:48.884Z,99.90
2018-06-04T04:29:17.304Z,99.90
2018-06-04T04:31:45.698Z,99.90
2018-06-04T04:34:14.021Z,99.90
2018-06-04T04:36:42.463Z,99.90
2018-06-04T04:39:10.870Z,99.90
2018-06-04T04:41:39.345Z,99.90
2018-06-04T04:44:07.726Z,99.90
2018-06-04T04:46:36.768Z,99.90
2018-06-04T04:49:05.447Z,99.90
2018-06-04T04:51:33.915Z,99.90
2018-06-04T04:54:02.464Z,99.90
2018-06-04T04:56:30.836Z,99.90
2018-06-04T04:58:59.236Z,99.90
2018-06-04T05:01:27.827Z,99.90
2018-06-04T05:03:56.378Z,99.90
2018-06-04T05:06:24.833Z,99.90
2018-06-04T05:08:53.321Z,99.90
2018-06-04T05:13:49.913Z,99.90
2018-06-04T05:16:18.317Z,99.90
2018-06-04T05:18:46.908Z,99.90
2018-06-04T05:21:15.233Z,99.90
2018-06-04T05:23:43.679Z,99.90
2018-06-04T05:26:12.003Z,99.90
2018-06-04T05:28:40.484Z,99.90
2018-06-04T05:31:08.918Z,99.90
2018-06-04T05:33:37.429Z,99.90
2018-06-04T05:36:05.820Z,99.90
2018-06-04T05:38:34.227Z,99.90
2018-06-04T05:41:02.678Z,99.90
2018-06-04T05:43:31.196Z,99.90
2018-06-04T05:45:59.729Z,99.90
2018-06-04T05:48:28.172Z,99.90
2018-06-04T05:50:56.533Z,99.90
2018-06-04T05:53:24.893Z,99.90
2018-06-04T05:55:53.382Z,99.90
2018-06-04T05:58:21.819Z,99.90
2018-06-04T06:00:50.225Z,99.90
2018-06-04T06:03:18.550Z,99.90
2018-06-04T06:05:46.911Z,99.90
2018-06-04T06:08:15.409Z,99.90
2018-06-04T06:10:43.902Z,99.90
2018-06-04T06:13:12.324Z,99.90
2018-06-04T06:15:40.779Z,99.90
2018-06-04T06:18:09.255Z,99.90
2018-06-04T06:20:37.720Z,99.90
2018-06-04T06:23:06.281Z,99.90
2018-06-04T06:25:34.865Z,99.90
2018-06-04T06:28:03.245Z,99.90
2018-06-04T06:30:31.751Z,99.90
2018-06-04T06:33:00.414Z,99.90
2018-06-04T06:35:28.993Z,99.90
2018-06-04T06:37:57.485Z,99.90
2018-06-04T06:40:26.590Z,99.90
2018-06-04T06:42:55.062Z,99.90
2018-06-04T06:45:23.548Z,99.90
2018-06-04T06:47:51.970Z,99.90
2018-06-04T06:50:20.414Z,99.90
2018-06-04T06:52:48.826Z,99.90
2018-06-04T06:55:17.234Z,99.90
2018-06-04T06:57:45.631Z,99.90
2018-06-04T07:00:14.677Z,99.90
2018-06-04T07:02:43.044Z,99.90
2018-06-04T07:05:11.508Z,99.90
2018-06-04T07:07:40.046Z,99.90
2018-06-04T07:10:08.456Z,99.90
2018-06-04T07:12:36.949Z,99.90
2018-06-04T07:15:05.361Z,99.90
2018-06-04T07:17:33.898Z,99.90
2018-06-04T07:20:02.387Z,99.90
2018-06-04T07:22:30.923Z,99.90
2018-06-04T07:24:59.444Z,99.90
2018-06-04T07:27:27.887Z,99.90
2018-06-04T07:29:56.348Z,99.90
2018-06-04T07:32:24.827Z,99.90
2018-06-04T07:34:53.382Z,99.90
2018-06-04T07:37:21.900Z,99.90
2018-06-04T07:39:50.302Z,99.90
2018-06-04T07:42:18.725Z,99.90
2018-06-04T07:44:53.475Z,99.90
2018-06-04T07:47:21.853Z,99.90
2018-06-04T07:49:50.432Z,99.90
2018-06-04T07:52:18.858Z,99.90
2018-06-04T07:54:47.328Z,99.90
2018-06-04T07:57:15.898Z,99.90
2018-06-04T07:59:44.391Z,99.90
2018-06-04T08:02:12.765Z,99.90
2018-06-04T08:04:41.306Z,99.90
2018-06-04T08:07:09.742Z,99.90
2018-06-04T08:09:38.094Z,99.90
2018-06-04T08:12:06.600Z,99.90
2018-06-04T08:14:35.084Z,99.90
2018-06-04T08:17:03.514Z,99.90
2018-06-04T08:19:31.945Z,99.90
2018-06-04T08:22:03.352Z,99.90
2018-06-04T08:24:31.871Z,99.90
2018-06-04T08:27:00.254Z,99.90
2018-06-04T08:29:28.977Z,99.90
2018-06-04T08:31:57.457Z,99.90
2018-06-04T08:34:25.929Z,99.90
2018-06-04T08:36:54.340Z,99.90
2018-06-04T08:39:22.780Z,99.90
2018-06-04T08:41:51.246Z,99.90
2018-06-04T08:44:19.614Z,99.90
2018-06-04T08:46:47.948Z,99.90
2018-06-04T08:49:16.304Z,99.90
2018-06-04T08:51:45.104Z,99.90
2018-06-04T08:54:13.514Z,99.90
2018-06-04T08:56:42.036Z,99.90
2018-06-04T08:59:10.764Z,99.90
2018-06-04T09:01:39.234Z,99.90
2018-06-04T09:04:07.753Z,99.90
2018-06-04T09:06:36.223Z,99.90
2018-06-04T09:09:06.511Z,99.90
2018-06-04T09:11:35.016Z,99.90
2018-06-04T09:14:03.541Z,99.90
2018-06-04T09:16:32.153Z,99.90
2018-06-04T09:19:00.578Z,99.90
2018-06-04T09:21:29.047Z,99.90
2018-06-04T09:23:57.395Z,99.90
2018-06-04T09:26:25.864Z,99.90
2018-06-04T09:28:54.193Z,99.90
2018-06-04T09:31:22.609Z,99.90
2018-06-04T09:33:51.176Z,99.90
2018-06-04T09:36:20.176Z,99.90
2018-06-04T09:38:48.706Z,99.90
2018-06-04T09:41:17.122Z,99.90
2018-06-04T09:43:46.101Z,99.90
2018-06-04T09:46:14.701Z,99.90
2018-06-04T09:48:43.226Z,99.90
2018-06-04T09:51:11.867Z,99.90
2018-06-04T09:53:40.350Z,99.50
2018-06-04T09:56:08.727Z,99.50
2018-06-04T09:58:37.270Z,99.90
2018-06-04T10:01:05.647Z,99.60
2018-06-04T10:03:34.068Z,99.10
2018-06-04T10:06:02.495Z,99.60
2018-06-04T10:08:30.892Z,99.20
2018-06-04T10:10:59.539Z,99.90
2018-06-04T10:13:27.918Z,99.00
2018-06-04T10:15:56.508Z,98.80
2018-06-04T10:18:25.017Z,98.30
2018-06-04T10:20:53.552Z,99.10
2018-06-04T10:23:22.060Z,98.40
2018-06-04T10:25:50.585Z,97.70
2018-06-04T10:30:47.342Z,98.80
2018-06-04T10:33:15.918Z,98.90
2018-06-04T10:35:44.376Z,98.00
2018-06-04T10:38:12.868Z,98.00
2018-06-04T10:40:41.335Z,98.20
2018-06-04T10:43:09.728Z,97.90
2018-06-04T10:45:38.321Z,97.50
2018-06-04T10:48:07.400Z,98.30
2018-06-04T10:50:35.797Z,97.90
2018-06-04T10:53:04.427Z,98.60
2018-06-04T10:55:32.847Z,98.50
2018-06-04T10:58:01.295Z,97.90
2018-06-04T11:00:29.745Z,97.30
2018-06-04T11:02:58.475Z,98.60
2018-06-04T11:05:26.960Z,97.20
2018-06-04T11:07:55.426Z,98.00
2018-06-04T11:10:23.897Z,96.90
2018-06-04T11:12:52.359Z,96.50
2018-06-04T11:15:20.872Z,96.90
2018-06-04T11:17:49.308Z,97.50
2018-06-04T11:20:17.780Z,96.00
2018-06-04T11:22:46.504Z,97.30
2018-06-04T11:25:14.956Z,97.20
2018-06-04T11:27:43.464Z,95.70
2018-06-04T11:30:11.889Z,95.10
2018-06-04T11:32:40.372Z,96.10
2018-06-04T11:35:09.171Z,96.60
2018-06-04T11:37:38.111Z,96.20
2018-06-04T11:40:06.558Z,95.10
2018-06-04T11:42:35.083Z,96.50
2018-06-04T11:45:03.674Z,95.20
2018-06-04T11:47:32.130Z,96.50
2018-06-04T11:50:00.620Z,94.50
2018-06-04T11:52:29.048Z,96.00
2018-06-04T11:54:57.383Z,95.80
2018-06-04T11:57:25.826Z,96.80
2018-06-04T11:59:54.175Z,95.20
2018-06-04T12:02:22.585Z,94.00
2018-06-04T12:04:50.934Z,93.60
2018-06-04T12:07:19.387Z,93.70
2018-06-04T12:09:48.313Z,92.70
2018-06-04T12:12:16.722Z,95.00
2018-06-04T12:14:45.148Z,92.30
2018-06-04T12:17:13.768Z,93.50
2018-06-04T12:19:42.144Z,92.80
2018-06-04T12:22:10.635Z,92.70
2018-06-04T12:24:39.099Z,90.50
2018-06-04T12:27:07.607Z,90.70
2018-06-04T12:29:36.230Z,90.40
2018-06-04T12:32:04.846Z,90.00
2018-06-04T12:34:33.925Z,88.70
2018-06-04T12:37:02.333Z,87.60
2018-06-04T12:39:30.856Z,90.70
2018-06-04T12:41:59.324Z,87.90
2018-06-04T12:44:27.824Z,89.30
2018-06-04T12:46:56.251Z,90.20
2018-06-04T12:49:24.743Z,91.10
2018-06-04T12:52:56.412Z,91.70
2018-06-04T12:55:24.943Z,89.30
2018-06-04T12:57:54.464Z,91.20
2018-06-04T13:00:22.900Z,90.50
2018-06-04T13:02:51.355Z,90.10
2018-06-04T13:05:19.852Z,86.70
2018-06-04T13:07:48.348Z,90.90
2018-06-04T13:10:16.795Z,87.00
2018-06-04T13:12:45.315Z,87.30
2018-06-04T13:15:13.832Z,86.90
2018-06-04T13:17:42.372Z,90.30
2018-06-04T13:20:10.842Z,90.20
2018-06-04T13:22:39.378Z,89.20
2018-06-04T13:25:07.807Z,86.10
2018-06-04T13:27:37.206Z,86.10
2018-06-04T13:30:05.732Z,84.80
2018-06-04T13:32:34.254Z,86.60
2018-06-04T13:35:03.362Z,85.40
2018-06-04T13:37:31.917Z,85.80
2018-06-04T13:40:00.557Z,79.40
2018-06-04T13:42:29.200Z,85.20
2018-06-04T13:44:57.647Z,82.60
2018-06-04T13:47:26.182Z,82.20
2018-06-04T13:49:54.650Z,80.80
2018-06-04T13:52:23.245Z,79.90
2018-06-04T13:54:51.828Z,77.50
2018-06-04T13:57:20.447Z,78.10
2018-06-04T13:59:48.941Z,78.30
2018-06-04T14:02:17.479Z,81.90
2018-06-04T14:04:45.845Z,76.10
2018-06-04T14:07:14.261Z,74.80
2018-06-04T14:09:42.712Z,75.20
2018-06-04T14:12:11.273Z,78.60
2018-06-04T14:14:39.620Z,83.70
2018-06-04T14:17:08.041Z,84.10
2018-06-04T14:19:36.523Z,87.60
2018-06-04T14:22:05.142Z,92.20
2018-06-04T14:24:33.636Z,93.60
2018-06-04T14:27:02.072Z,95.10
2018-06-04T14:29:30.511Z,96.90
2018-06-04T14:31:58.890Z,98.40
2018-06-04T14:34:27.294Z,99.90
2018-06-04T14:36:55.649Z,99.90
2018-06-04T14:39:24.008Z,99.90
2018-06-04T14:41:52.392Z,99.90
2018-06-04T14:44:20.886Z,99.90
2018-06-04T14:46:49.360Z,99.90
2018-06-04T14:49:17.778Z,99.90
2018-06-04T14:51:46.580Z,99.90
2018-06-04T14:54:14.972Z,99.90
2018-06-04T14:56:43.318Z,99.90
2018-06-04T14:59:11.738Z,99.90
2018-06-04T15:01:40.064Z,99.90
2018-06-04T15:04:08.388Z,99.90
2018-06-04T15:06:36.982Z,99.90
2018-06-04T15:09:07.887Z,99.90
2018-06-04T15:11:36.536Z,99.90
2018-06-04T15:14:04.842Z,99.90
2018-06-04T15:16:33.654Z,99.40
2018-06-04T15:19:02.012Z,98.60
2018-06-04T15:23:58.431Z,97.70
2018-06-04T15:26:26.752Z,95.20
2018-06-04T15:28:55.106Z,95.60
2018-06-04T15:31:23.503Z,95.80
2018-06-04T15:33:51.858Z,93.90
2018-06-04T15:36:20.182Z,96.60
2018-06-04T15:38:48.625Z,97.10
2018-06-04T15:41:17.017Z,95.60
2018-06-04T15:43:45.384Z,93.80
2018-06-04T15:46:13.718Z,95.00
2018-06-04T15:48:42.113Z,93.10
2018-06-04T15:51:10.559Z,92.50
2018-06-04T15:53:38.875Z,94.30
2018-06-04T15:56:07.257Z,95.10
2018-06-04T15:58:35.882Z,96.00
2018-06-04T16:01:04.239Z,97.00
2018-06-04T16:03:32.574Z,97.80
2018-06-04T16:06:00.985Z,97.90
2018-06-04T16:08:29.316Z,97.50
2018-06-04T16:10:57.686Z,98.70
2018-06-04T16:13:26.086Z,99.50
2018-06-04T16:15:54.492Z,99.90
2018-06-04T16:18:23.036Z,99.90
2018-06-04T16:20:51.523Z,99.90
2018-06-04T16:23:22.985Z,99.90
2018-06-04T16:25:51.392Z,99.90
2018-06-04T16:28:19.938Z,99.90
2018-06-04T16:30:48.438Z,99.90
2018-06-04T16:33:16.823Z,99.90
2018-06-04T16:35:45.168Z,99.90
2018-06-04T16:38:13.624Z,99.90
2018-06-04T16:40:41.952Z,99.90
2018-06-04T16:43:10.466Z,99.90
2018-06-04T16:45:38.937Z,99.90
2018-06-04T16:48:07.306Z,99.90
2018-06-04T16:50:35.883Z,99.90
2018-06-04T16:53:04.189Z,99.90
2018-06-04T16:55:32.583Z,99.90
2018-06-04T16:58:01.122Z,99.90
2018-06-04T17:00:29.521Z,99.90
2018-06-04T17:02:58.035Z,99.90
2018-06-04T17:05:26.500Z,99.90
2018-06-04T17:07:54.958Z,99.90
2018-06-04T17:10:23.457Z,99.90
2018-06-04T17:12:51.887Z,99.90
2018-06-04T17:15:20.513Z,99.90
2018-06-04T17:17:49.043Z,99.90
2018-06-04T17:20:17.429Z,99.90
2018-06-04T17:22:45.777Z,99.90
2018-06-04T17:25:14.089Z,99.90
2018-06-04T17:27:42.506Z,99.90
2018-06-04T17:30:10.846Z,99.90
2018-06-04T17:32:39.282Z,99.90
2018-06-04T17:35:07.669Z,99.90
2018-06-04T17:37:36.040Z,99.90
2018-06-04T17:40:04.448Z,99.90
2018-06-04T17:42:32.735Z,99.90
2018-06-04T17:45:01.313Z,99.90
2018-06-04T17:47:29.667Z,99.90
2018-06-04T17:49:58.120Z,99.90
2018-06-04T17:52:26.456Z,99.90
2018-06-04T17:54:54.823Z,99.90
2018-06-04T17:57:23.204Z,99.90
2018-06-04T17:59:51.710Z,99.90
2018-06-04T18:02:20.190Z,99.90
2018-06-04T18:04:48.656Z,99.90
2018-06-04T18:07:17.101Z,99.90
2018-06-04T18:09:45.440Z,99.90
2018-06-04T18:12:13.767Z,99.90
2018-06-04T18:14:42.285Z,99.90
2018-06-04T18:17:10.679Z,99.90
2018-06-04T18:19:39.114Z,99.90
2018-06-04T18:22:07.493Z,99.90
2018-06-04T18:24:35.958Z,99.90
2018-06-04T18:27:04.391Z,99.90
2018-06-04T18:29:32.785Z,99.90
2018-06-04T18:32:01.179Z,99.90
2018-06-04T18:34:29.578Z,99.90
2018-06-04T18:36:57.960Z,99.90
2018-06-04T18:39:26.356Z,99.90
2018-06-04T18:41:54.816Z,99.90
2018-06-04T18:44:23.255Z,99.90
2018-06-04T18:46:51.636Z,99.90
2018-06-04T18:49:20.016Z,99.90
2018-06-04T18:51:48.530Z,99.90
2018-06-04T18:54:16.820Z,99.90
2018-06-04T18:56:45.199Z,99.90
2018-06-04T18:59:13.648Z,99.90
2018-06-04T19:01:41.987Z,99.90
2018-06-04T19:06:38.738Z,99.90
2018-06-04T19:09:09.378Z,99.90
2018-06-04T19:11:38.007Z,99.90
2018-06-04T19:14:06.376Z,99.90
2018-06-04T19:16:35.038Z,99.90
2018-06-04T19:19:03.442Z,99.90
2018-06-04T19:21:31.772Z,99.90
2018-06-04T19:24:00.211Z,99.90
2018-06-04T19:26:28.558Z,99.90
2018-06-04T19:28:56.984Z,99.90
2018-06-04T19:31:25.346Z,99.90
2018-06-04T19:33:53.730Z,99.90
2018-06-04T19:36:22.148Z,99.90
2018-06-04T19:38:50.502Z,99.90
2018-06-04T19:41:18.900Z,99.90
2018-06-04T19:43:47.212Z,99.90
2018-06-04T19:46:15.581Z,99.90
2018-06-04T19:48:43.926Z,99.90
2018-06-04T19:51:12.382Z,99.90
2018-06-04T19:53:41.195Z,99.90
2018-06-04T19:56:09.644Z,99.90
2018-06-04T19:58:38.145Z,99.90
2018-06-04T20:01:06.662Z,99.90
2018-06-04T20:03:35.008Z,99.90
2018-06-04T20:06:03.418Z,99.90
2018-06-04T20:08:32.040Z,99.90
2018-06-04T20:11:00.454Z,99.90
2018-06-04T20:13:29.334Z,99.90
2018-06-04T20:15:57.707Z,99.90
2018-06-04T20:18:26.164Z,99.90
2018-06-04T20:20:54.683Z,99.90
2018-06-04T20:23:23.066Z,99.90
2018-06-04T20:25:51.643Z,99.90
2018-06-04T20:28:20.130Z,99.90
2018-06-04T20:30:48.558Z,99.90
2018-06-04T20:33:17.070Z,99.90
2018-06-04T20:38:13.580Z,99.90
2018-06-04T20:40:42.017Z,99.90
2018-06-04T20:43:10.577Z,99.90
2018-06-04T20:45:38.883Z,99.90
2018-06-04T20:48:07.270Z,99.90
2018-06-04T20:50:35.664Z,99.90
2018-06-04T20:53:04.091Z,99.90
2018-06-04T20:55:32.470Z,99.90
2018-06-04T20:58:00.847Z,99.90
2018-06-04T21:00:29.271Z,99.90
2018-06-04T21:02:57.690Z,99.90
2018-06-04T21:05:26.061Z,99.90
2018-06-04T21:07:54.459Z,99.90
2018-06-04T21:10:22.822Z,99.90
2018-06-04T21:12:51.222Z,99.90
2018-06-04T21:15:19.640Z,99.90
2018-06-04T21:17:48.007Z,99.90
2018-06-04T21:20:16.359Z,99.90
2018-06-04T21:22:44.819Z,99.90
2018-06-04T21:25:13.246Z,99.90
2018-06-04T21:27:41.619Z,99.90
2018-06-04T21:30:10.081Z,99.90
2018-06-04T21:32:42.295Z,99.90
2018-06-04T21:35:10.684Z,99.90
2018-06-04T21:37:39.024Z,99.90
2018-06-04T21:40:07.472Z,99.90
2018-06-04T21:42:35.984Z,99.90
2018-06-04T21:45:04.430Z,99.90
2018-06-04T21:47:32.882Z,99.90
2018-06-04T21:50:01.336Z,99.90
2018-06-04T21:52:29.667Z,99.90
2018-06-04T21:54:58.007Z,99.90
2018-06-04T21:57:26.492Z,99.90
2018-06-04T21:59:54.879Z,99.90
2018-06-04T22:02:23.343Z,99.90
2018-06-04T22:04:51.761Z,99.90
2018-06-04T22:07:20.165Z,99.90
2018-06-04T22:12:16.774Z,99.90
2018-06-04T22:14:45.150Z,99.90
2018-06-04T22:17:13.517Z,99.90
2018-06-04T22:19:41.897Z,99.90
2018-06-04T22:22:10.241Z,99.90
2018-06-04T22:24:38.615Z,99.90
2018-06-04T22:27:07.073Z,99.90
2018-06-04T22:29:35.377Z,99.90
2018-06-04T22:32:03.882Z,99.90
2018-06-04T22:34:32.397Z,99.90
2018-06-04T22:37:00.791Z,99.90
2018-06-04T22:39:29.139Z,99.90
2018-06-04T22:41:57.564Z,99.90
2018-06-04T22:44:25.970Z,99.90
2018-06-04T22:46:54.342Z,99.90
2018-06-04T22:49:23.223Z,99.90
2018-06-04T22:51:51.678Z,99.90
2018-06-04T22:54:20.052Z,99.90
2018-06-04T22:56:48.465Z,99.90
2018-06-04T22:59:16.800Z,99.90
2018-06-04T23:01:45.161Z,99.90
2018-06-04T23:04:13.605Z,99.90
2018-06-04T23:06:41.987Z,99.90
2018-06-04T23:09:10.449Z,99.90
2018-06-04T23:11:38.852Z,99.90
2018-06-04T23:14:07.240Z,99.90
2018-06-04T23:16:35.603Z,99.90
2018-06-04T23:19:03.983Z,99.90
2018-06-04T23:21:32.316Z,99.90
2018-06-04T23:24:01.079Z,99.90
2018-06-04T23:26:29.493Z,99.90
2018-06-04T23:28:57.831Z,99.90
2018-06-04T23:31:26.175Z,99.90
2018-06-04T23:33:54.509Z,99.90
2018-06-04T23:36:22.886Z,99.90
2018-06-04T23:38:51.256Z,99.90
2018-06-04T23:41:19.623Z,99.90
2018-06-04T23:43:48.024Z,99.90
2018-06-04T23:46:16.415Z,99.90
2018-06-04T23:48:44.764Z,99.90
2018-06-04T23:51:13.073Z,99.90
2018-06-04T23:53:41.444Z,99.90
2018-06-04T23:56:09.866Z,99.90
2018-06-04T23:58:38.331Z,99.90
